createdAt,value
2018-02-04T00:00:33.557Z,88.61
2018-02-04T00:03:01.925Z,88.48
2018-02-04T00:05:30.264Z,88.21
2018-02-04T00:07:58.681Z,87.45
2018-02-04T00:10:27.021Z,87.09
2018-02-04T00:12:55.332Z,87.37
2018-02-04T00:15:23.710Z,87.11
2018-02-04T00:17:52.030Z,86.99
2018-02-04T00:20:20.466Z,87.18
2018-02-04T00:22:48.781Z,87.23
2018-02-04T00:25:17.162Z,86.72
2018-02-04T00:27:45.493Z,85.86
2018-02-04T00:30:13.870Z,86.41
2018-02-04T00:32:42.241Z,86.72
2018-02-04T00:35:10.581Z,86.09
2018-02-04T00:37:38.897Z,86.70
2018-02-04T00:40:07.277Z,85.95
2018-02-04T00:42:35.653Z,86.51
2018-02-04T00:45:03.994Z,86.78
2018-02-04T00:47:32.405Z,86.60
2018-02-04T00:50:00.840Z,86.72
2018-02-04T00:52:29.138Z,86.69
2018-02-04T00:54:57.477Z,85.94
2018-02-04T00:57:25.808Z,85.55
2018-02-04T00:59:54.149Z,85.96
2018-02-04T01:02:22.505Z,86.61
2018-02-04T01:04:50.849Z,86.87
2018-02-04T01:07:19.161Z,85.70
2018-02-04T01:09:47.489Z,84.98
2018-02-04T01:12:15.874Z,85.24
2018-02-04T01:14:44.257Z,84.79
2018-02-04T01:17:12.625Z,84.33
2018-02-04T01:19:41.005Z,83.94
2018-02-04T01:22:09.377Z,84.18
2018-02-04T01:24:37.693Z,83.91
2018-02-04T01:27:06.037Z,84.13
2018-02-04T01:29:34.405Z,83.91
2018-02-04T01:32:02.749Z,83.21
2018-02-04T01:34:31.166Z,83.26
2018-02-04T01:36:59.542Z,83.77
2018-02-04T01:39:27.922Z,84.02
2018-02-04T01:41:56.297Z,84.65
2018-02-04T01:44:24.673Z,84.90
2018-02-04T01:46:53.054Z,85.07
2018-02-04T01:49:21.369Z,83.97
2018-02-04T01:51:49.801Z,84.49
2018-02-04T01:54:18.120Z,84.44
2018-02-04T01:56:46.456Z,84.20
2018-02-04T01:59:14.775Z,84.51
2018-02-04T02:01:43.213Z,84.15
2018-02-04T02:04:11.590Z,83.92
2018-02-04T02:06:39.933Z,83.25
2018-02-04T02:09:08.249Z,83.61
2018-02-04T02:11:36.621Z,83.42
2018-02-04T02:14:04.937Z,83.86
2018-02-04T02:16:33.368Z,83.51
2018-02-04T02:19:01.690Z,83.90
2018-02-04T02:21:30.025Z,84.07
2018-02-04T02:23:58.406Z,84.28
2018-02-04T02:26:26.746Z,84.58
2018-02-04T02:28:55.157Z,84.58
2018-02-04T02:31:23.498Z,85.38
2018-02-04T02:33:51.814Z,85.89
2018-02-04T02:36:20.181Z,85.94
2018-02-04T02:38:48.501Z,85.45
2018-02-04T02:41:16.943Z,85.27
2018-02-04T02:43:45.261Z,86.23
2018-02-04T02:46:13.602Z,86.10
2018-02-04T02:48:41.923Z,85.92
2018-02-04T02:51:10.409Z,86.16
2018-02-04T02:53:38.665Z,86.76
2018-02-04T02:56:07.009Z,86.31
2018-02-04T02:58:35.377Z,86.08
2018-02-04T03:01:03.753Z,85.95
2018-02-04T03:03:32.078Z,85.56
2018-02-04T03:06:00.413Z,85.52
2018-02-04T03:08:28.792Z,85.53
2018-02-04T03:10:57.157Z,85.84
2018-02-04T03:13:25.533Z,85.71
2018-02-04T03:15:53.916Z,85.97
2018-02-04T03:18:22.253Z,85.58
2018-02-04T03:20:50.669Z,85.36
2018-02-04T03:23:19.103Z,85.84
2018-02-04T03:25:47.402Z,85.68
2018-02-04T03:28:15.736Z,85.78
2018-02-04T03:30:44.078Z,85.53
2018-02-04T03:33:12.417Z,85.19
2018-02-04T03:35:41.182Z,85.10
2018-02-04T03:38:09.521Z,85.09
2018-02-04T03:40:37.843Z,84.80
2018-02-04T03:43:06.181Z,84.86
2018-02-04T03:45:34.497Z,85.09
2018-02-04T03:48:02.838Z,85.29
2018-02-04T03:50:31.158Z,85.64
2018-02-04T03:52:59.497Z,85.71
2018-02-04T03:55:27.849Z,86.15
2018-02-04T03:57:56.225Z,86.28
2018-02-04T04:00:24.551Z,86.70
2018-02-04T04:02:52.889Z,86.79
2018-02-04T04:05:21.209Z,87.19
2018-02-04T04:07:49.554Z,87.47
2018-02-04T04:10:17.869Z,87.70
2018-02-04T04:12:46.282Z,88.24
2018-02-04T04:15:14.601Z,88.52
2018-02-04T04:17:43.037Z,88.17
2018-02-04T04:20:11.357Z,88.82
2018-02-04T04:22:39.701Z,89.13
2018-02-04T04:25:08.030Z,89.70
2018-02-04T04:27:36.445Z,89.77
2018-02-04T04:30:04.761Z,90.02
2018-02-04T04:32:33.101Z,89.98
2018-02-04T04:35:01.417Z,89.88
2018-02-04T04:37:29.854Z,90.04
2018-02-04T04:39:58.227Z,89.82
2018-02-04T04:42:26.612Z,89.78
2018-02-04T04:44:54.930Z,89.94
2018-02-04T04:47:23.366Z,90.28
2018-02-04T04:49:51.682Z,90.27
2018-02-04T04:52:20.025Z,90.22
2018-02-04T04:54:48.351Z,90.16
2018-02-04T04:57:16.686Z,90.22
2018-02-04T04:59:45.004Z,89.95
2018-02-04T05:02:13.345Z,89.72
2018-02-04T05:04:41.693Z,89.60
2018-02-04T05:07:10.038Z,89.88
2018-02-04T05:09:38.356Z,89.56
2018-02-04T05:12:06.673Z,88.99
2018-02-04T05:14:35.014Z,88.78
2018-02-04T05:17:03.334Z,88.69
2018-02-04T05:19:31.674Z,88.16
2018-02-04T05:21:59.993Z,87.61
2018-02-04T05:24:28.330Z,87.35
2018-02-04T05:26:56.645Z,87.05
2018-02-04T05:29:24.984Z,86.81
2018-02-04T05:31:53.298Z,86.85
2018-02-04T05:34:21.637Z,87.07
2018-02-04T05:36:49.960Z,87.25
2018-02-04T05:39:18.294Z,87.08
2018-02-04T05:41:46.614Z,86.94
2018-02-04T05:44:14.953Z,86.77
2018-02-04T05:46:43.265Z,86.72
2018-02-04T05:49:11.606Z,86.41
2018-02-04T05:51:39.917Z,86.00
2018-02-04T05:54:08.262Z,85.67
2018-02-04T05:56:36.576Z,85.44
2018-02-04T05:59:04.917Z,85.15
2018-02-04T06:01:33.238Z,85.06
2018-02-04T06:04:01.578Z,84.87
2018-02-04T06:06:29.898Z,84.80
2018-02-04T06:08:58.237Z,85.04
2018-02-04T06:11:26.553Z,85.07
2018-02-04T06:13:55.002Z,84.92
2018-02-04T06:16:23.317Z,84.83
2018-02-04T06:18:51.657Z,84.74
2018-02-04T06:21:19.981Z,84.82
2018-02-04T06:23:48.318Z,84.96
2018-02-04T06:26:16.642Z,84.93
2018-02-04T06:28:44.982Z,84.85
2018-02-04T06:31:13.298Z,84.93
2018-02-04T06:33:41.634Z,84.98
2018-02-04T06:36:09.949Z,85.10
2018-02-04T06:38:38.296Z,85.21
2018-02-04T06:41:06.613Z,85.35
2018-02-04T06:43:34.957Z,85.47
2018-02-04T06:46:03.281Z,85.52
2018-02-04T06:48:31.629Z,85.58
2018-02-04T06:50:59.945Z,85.82
2018-02-04T06:53:28.288Z,86.13
2018-02-04T06:55:56.603Z,86.04
2018-02-04T06:58:24.992Z,85.84
2018-02-04T07:00:53.261Z,85.80
2018-02-04T07:03:21.608Z,85.87
2018-02-04T07:05:49.926Z,85.82
2018-02-04T07:08:18.278Z,85.64
2018-02-04T07:10:46.581Z,85.58
2018-02-04T07:13:14.896Z,85.54
2018-02-04T07:15:43.234Z,85.16
2018-02-04T07:18:11.550Z,85.37
2018-02-04T07:20:39.894Z,85.64
2018-02-04T07:23:08.214Z,85.85
2018-02-04T07:25:36.553Z,86.19
2018-02-04T07:28:04.869Z,86.03
2018-02-04T07:30:33.205Z,85.93
2018-02-04T07:33:01.521Z,86.31
2018-02-04T07:35:29.863Z,86.55
2018-02-04T07:37:58.173Z,86.63
2018-02-04T07:40:26.517Z,86.76
2018-02-04T07:42:54.829Z,86.63
2018-02-04T07:45:23.165Z,86.37
2018-02-04T07:47:51.481Z,86.39
2018-02-04T07:50:19.818Z,86.71
2018-02-04T07:52:48.137Z,86.79
2018-02-04T07:55:16.477Z,86.39
2018-02-04T07:57:44.798Z,85.86
2018-02-04T08:00:13.137Z,85.61
2018-02-04T08:02:41.457Z,85.46
2018-02-04T08:05:09.801Z,85.44
2018-02-04T08:07:38.122Z,85.55
2018-02-04T08:10:06.470Z,85.79
2018-02-04T08:12:34.788Z,85.72
2018-02-04T08:15:03.133Z,86.42
2018-02-04T08:17:31.453Z,86.74
2018-02-04T08:19:59.797Z,86.43
2018-02-04T08:25:13.789Z,86.56
2018-02-04T08:27:42.114Z,87.13
2018-02-04T08:30:10.622Z,87.64
2018-02-04T08:32:38.941Z,87.83
2018-02-04T08:35:11.357Z,88.06
2018-02-04T08:37:39.754Z,88.27
2018-02-04T08:40:08.101Z,88.87
2018-02-04T08:42:36.422Z,89.12
2018-02-04T08:45:04.764Z,89.23
2018-02-04T08:47:33.091Z,88.80
2018-02-04T08:50:01.434Z,89.32
2018-02-04T08:52:29.753Z,89.19
2018-02-04T08:54:58.130Z,88.81
2018-02-04T08:57:26.741Z,87.60
2018-02-04T08:59:56.660Z,87.28
2018-02-04T09:02:25.061Z,86.71
2018-02-04T09:04:53.418Z,85.87
2018-02-04T09:07:21.817Z,85.16
2018-02-04T09:09:50.198Z,84.22
2018-02-04T09:12:18.522Z,84.33
2018-02-04T09:14:46.879Z,83.27
2018-02-04T09:17:15.197Z,83.65
2018-02-04T09:19:43.601Z,82.50
2018-02-04T09:22:12.689Z,82.64
2018-02-04T09:24:41.005Z,82.51
2018-02-04T09:27:09.351Z,82.45
2018-02-04T09:29:37.734Z,81.76
2018-02-04T09:32:06.114Z,81.75
2018-02-04T09:34:34.441Z,81.31
2018-02-04T09:37:02.799Z,87.75
2018-02-04T09:39:31.109Z,81.64
2018-02-04T09:41:59.449Z,80.60
2018-02-04T09:44:27.791Z,80.70
2018-02-04T09:46:56.161Z,81.72
2018-02-04T09:49:24.494Z,82.28
2018-02-04T09:51:52.916Z,83.07
2018-02-04T09:54:21.292Z,84.33
2018-02-04T09:56:49.670Z,84.26
2018-02-04T09:59:17.989Z,84.26
2018-02-04T10:01:46.334Z,84.20
2018-02-04T10:04:14.657Z,84.68
2018-02-04T10:06:43.988Z,84.59
2018-02-04T10:09:12.306Z,83.82
2018-02-04T10:11:40.693Z,84.17
2018-02-04T10:14:09.013Z,84.52
2018-02-04T10:16:38.765Z,84.37
2018-02-04T10:19:07.113Z,84.69
2018-02-04T10:21:35.582Z,84.46
2018-02-04T10:24:03.893Z,83.92
2018-02-04T10:26:32.324Z,83.50
2018-02-04T10:29:00.646Z,83.42
2018-02-04T10:31:29.052Z,84.28
2018-02-04T10:33:57.477Z,84.71
2018-02-04T10:36:26.218Z,84.53
2018-02-04T10:38:54.641Z,85.01
2018-02-04T10:41:22.985Z,85.59
2018-02-04T10:43:51.317Z,85.08
2018-02-04T10:46:19.658Z,84.61
2018-02-04T10:48:47.986Z,84.76
2018-02-04T10:51:21.918Z,84.83
2018-02-04T10:53:50.238Z,84.60
2018-02-04T10:56:18.605Z,84.23
2018-02-04T10:58:46.942Z,84.49
2018-02-04T11:01:15.292Z,84.00
2018-02-04T11:03:43.614Z,83.28
2018-02-04T11:06:11.957Z,83.30
2018-02-04T11:08:40.298Z,83.40
2018-02-04T11:11:08.617Z,84.27
2018-02-04T11:13:36.961Z,84.63
2018-02-04T11:16:05.291Z,84.64
2018-02-04T11:18:33.693Z,84.84
2018-02-04T11:21:02.011Z,85.12
2018-02-04T11:23:30.357Z,85.62
2018-02-04T11:25:58.681Z,84.96
2018-02-04T11:28:27.028Z,85.41
2018-02-04T11:30:55.345Z,85.36
2018-02-04T11:33:23.688Z,85.88
2018-02-04T11:35:52.011Z,85.34
2018-02-04T11:38:20.374Z,85.64
2018-02-04T11:40:48.889Z,86.02
2018-02-04T11:43:17.262Z,85.72
2018-02-04T11:45:46.557Z,85.77
2018-02-04T11:48:14.992Z,84.95
2018-02-04T11:50:43.317Z,85.30
2018-02-04T11:53:11.666Z,84.62
2018-02-04T11:55:40.226Z,85.25
2018-02-04T11:58:08.549Z,84.69
2018-02-04T12:00:36.874Z,83.42
2018-02-04T12:03:05.217Z,84.09
2018-02-04T12:05:33.537Z,82.88
2018-02-04T12:08:01.949Z,83.20
2018-02-04T12:10:30.278Z,83.24
2018-02-04T12:12:58.621Z,83.13
2018-02-04T12:15:26.982Z,83.12
2018-02-04T12:17:55.326Z,81.63
2018-02-04T12:20:23.647Z,82.15
2018-02-04T12:22:52.009Z,82.96
2018-02-04T12:25:20.329Z,82.10
2018-02-04T12:27:48.671Z,81.54
2018-02-04T12:30:16.997Z,82.33
2018-02-04T12:32:46.180Z,82.83
2018-02-04T12:35:14.514Z,82.40
2018-02-04T12:37:42.890Z,82.22
2018-02-04T12:40:11.265Z,81.45
2018-02-04T12:42:39.606Z,80.91
2018-02-04T12:45:07.990Z,81.96
2018-02-04T12:47:36.390Z,82.75
2018-02-04T12:50:04.697Z,81.47
2018-02-04T12:52:33.046Z,80.88
2018-02-04T12:55:01.442Z,81.20
2018-02-04T12:57:29.798Z,79.94
2018-02-04T12:59:58.190Z,79.03
2018-02-04T13:02:26.533Z,79.70
2018-02-04T13:04:54.857Z,80.76
2018-02-04T13:07:23.310Z,79.02
2018-02-04T13:09:51.690Z,79.01
2018-02-04T13:12:20.009Z,79.62
2018-02-04T13:14:48.353Z,79.42
2018-02-04T13:17:16.685Z,78.85
2018-02-04T13:19:45.078Z,78.72
2018-02-04T13:22:13.410Z,78.66
2018-02-04T13:24:41.822Z,78.40
2018-02-04T13:27:10.225Z,78.74
2018-02-04T13:29:38.605Z,78.31
2018-02-04T13:32:06.933Z,77.71
2018-02-04T13:34:35.277Z,78.95
2018-02-04T13:37:03.602Z,79.60
2018-02-04T13:39:31.975Z,79.97
2018-02-04T13:42:01.077Z,80.18
2018-02-04T13:44:29.429Z,79.59
2018-02-04T13:46:58.737Z,79.63
2018-02-04T13:49:27.097Z,79.60
2018-02-04T13:51:55.429Z,80.59
2018-02-04T13:54:24.073Z,80.11
2018-02-04T13:56:53.413Z,80.66
2018-02-04T13:59:21.797Z,81.23
2018-02-04T14:01:50.169Z,81.27
2018-02-04T14:04:18.509Z,81.78
2018-02-04T14:06:46.829Z,83.10
2018-02-04T14:09:15.253Z,83.15
2018-02-04T14:11:43.553Z,82.55
2018-02-04T14:14:11.902Z,83.07
2018-02-04T14:16:40.217Z,83.60
2018-02-04T14:19:08.610Z,83.83
2018-02-04T14:21:36.930Z,82.72
2018-02-04T14:24:05.414Z,82.27
2018-02-04T14:26:35.122Z,82.59
2018-02-04T14:29:03.651Z,82.78
2018-02-04T14:31:31.974Z,82.58
2018-02-04T14:34:00.810Z,82.58
2018-02-04T14:36:29.169Z,82.22
2018-02-04T14:38:57.565Z,82.72
2018-02-04T14:41:26.827Z,82.46
2018-02-04T14:43:55.605Z,81.77
2018-02-04T14:46:24.392Z,81.49
2018-02-04T14:48:52.785Z,80.44
2018-02-04T14:51:21.105Z,79.97
2018-02-04T14:53:49.450Z,79.83
2018-02-04T14:56:17.845Z,80.05
2018-02-04T14:58:46.226Z,80.11
2018-02-04T15:01:14.571Z,80.49
2018-02-04T15:03:42.897Z,79.91
2018-02-04T15:06:11.226Z,79.22
2018-02-04T15:08:39.568Z,80.35
2018-02-04T15:11:07.894Z,80.48
2018-02-04T15:13:36.242Z,80.87
2018-02-04T15:16:04.762Z,79.93
2018-02-04T15:18:33.083Z,79.62
2018-02-04T15:21:01.422Z,78.89
2018-02-04T15:23:29.749Z,78.72
2018-02-04T15:25:58.093Z,78.85
2018-02-04T15:28:26.425Z,79.47
2018-02-04T15:30:54.769Z,79.77
2018-02-04T15:33:23.089Z,79.85
2018-02-04T15:35:51.429Z,79.79
2018-02-04T15:38:19.754Z,80.51
2018-02-04T15:40:48.098Z,81.14
2018-02-04T15:43:16.482Z,81.19
2018-02-04T15:45:45.740Z,81.05
2018-02-04T15:48:14.103Z,81.44
2018-02-04T15:50:42.463Z,83.15
2018-02-04T15:53:10.781Z,83.50
2018-02-04T15:55:39.125Z,84.14
2018-02-04T15:58:07.445Z,85.05
2018-02-04T16:00:35.855Z,85.28
2018-02-04T16:03:04.204Z,85.31
2018-02-04T16:05:32.542Z,85.42
2018-02-04T16:08:00.889Z,84.96
2018-02-04T16:10:29.233Z,84.78
2018-02-04T16:12:57.553Z,85.24
2018-02-04T16:15:25.903Z,84.82
2018-02-04T16:17:54.226Z,85.06
2018-02-04T16:20:22.569Z,85.27
2018-02-04T16:22:50.897Z,85.22
2018-02-04T16:25:19.247Z,86.08
2018-02-04T16:27:47.578Z,85.64
2018-02-04T16:30:15.925Z,85.65
2018-02-04T16:32:44.250Z,86.22
2018-02-04T16:35:12.592Z,86.54
2018-02-04T16:37:40.909Z,86.52
2018-02-04T16:40:09.257Z,86.48
2018-02-04T16:42:37.577Z,86.81
2018-02-04T16:45:05.923Z,86.55
2018-02-04T16:47:34.243Z,86.80
2018-02-04T16:50:02.585Z,86.62
2018-02-04T16:52:30.914Z,86.38
2018-02-04T16:55:00.274Z,86.92
2018-02-04T16:57:28.593Z,86.64
2018-02-04T16:59:56.937Z,86.61
2018-02-04T17:02:25.266Z,86.40
2018-02-04T17:04:53.610Z,86.41
2018-02-04T17:07:21.934Z,86.43
2018-02-04T17:09:50.282Z,86.17
2018-02-04T17:12:18.605Z,86.26
2018-02-04T17:14:46.945Z,86.40
2018-02-04T17:17:15.314Z,86.74
2018-02-04T17:19:43.617Z,86.29
2018-02-04T17:22:11.969Z,86.49
2018-02-04T17:24:40.294Z,86.41
2018-02-04T17:27:08.673Z,86.65
2018-02-04T17:29:37.006Z,86.69
2018-02-04T17:32:05.354Z,86.34
2018-02-04T17:34:34.577Z,86.72
2018-02-04T17:37:02.926Z,86.95
2018-02-04T17:39:31.245Z,86.69
2018-02-04T17:41:59.594Z,86.65
2018-02-04T17:44:27.954Z,86.88
2018-02-04T17:46:56.282Z,86.90
2018-02-04T17:49:24.607Z,86.94
2018-02-04T17:51:52.946Z,86.95
2018-02-04T17:54:21.306Z,87.17
2018-02-04T17:56:49.669Z,87.22
2018-02-04T17:59:18.003Z,86.84
2018-02-04T18:01:46.362Z,86.71
2018-02-04T18:04:14.683Z,86.82
2018-02-04T18:06:43.030Z,86.77
2018-02-04T18:09:11.356Z,86.63
2018-02-04T18:11:39.701Z,87.29
2018-02-04T18:14:08.053Z,87.61
2018-02-04T18:16:36.397Z,87.11
2018-02-04T18:19:06.130Z,87.15
2018-02-04T18:21:34.482Z,87.22
2018-02-04T18:24:02.916Z,87.38
2018-02-04T18:26:31.611Z,87.41
2018-02-04T18:29:00.085Z,87.79
2018-02-04T18:31:28.642Z,87.93
2018-02-04T18:33:57.051Z,87.91
2018-02-04T18:36:26.363Z,87.71
2018-02-04T18:38:54.724Z,91.05
2018-02-04T18:41:23.464Z,90.89
2018-02-04T18:43:51.910Z,88.40
2018-02-04T18:46:20.305Z,88.65
2018-02-04T18:48:48.722Z,86.95
2018-02-04T18:51:17.070Z,87.09
2018-02-04T18:53:45.438Z,87.55
2018-02-04T18:56:13.931Z,87.91
2018-02-04T18:58:42.245Z,88.29
2018-02-04T19:01:10.602Z,88.58
2018-02-04T19:03:38.933Z,88.73
2018-02-04T19:06:07.412Z,88.74
2018-02-04T19:08:35.849Z,88.31
2018-02-04T19:11:04.388Z,88.06
2018-02-04T19:13:32.698Z,88.04
2018-02-04T19:16:01.054Z,88.21
2018-02-04T19:18:29.382Z,88.77
2018-02-04T19:20:57.759Z,88.84
2018-02-04T19:23:26.090Z,89.54
2018-02-04T19:25:54.428Z,89.99
2018-02-04T19:28:23.118Z,90.36
2018-02-04T19:30:51.447Z,90.92
2018-02-04T19:33:19.792Z,91.16
2018-02-04T19:35:48.125Z,91.61
2018-02-04T19:38:16.481Z,91.21
2018-02-04T19:40:44.816Z,91.16
2018-02-04T19:43:13.162Z,91.48
2018-02-04T19:45:41.579Z,91.55
2018-02-04T19:48:09.893Z,91.48
2018-02-04T19:50:38.217Z,91.39
2018-02-04T19:53:06.661Z,91.51
2018-02-04T19:55:34.973Z,91.17
2018-02-04T19:58:03.321Z,90.93
2018-02-04T20:00:31.653Z,90.98
2018-02-04T20:03:00.005Z,90.82
2018-02-04T20:05:28.332Z,90.45
2018-02-04T20:07:56.696Z,90.19
2018-02-04T20:10:25.019Z,90.27
2018-02-04T20:12:53.391Z,90.36
2018-02-04T20:15:21.914Z,90.44
2018-02-04T20:17:50.262Z,90.24
2018-02-04T20:20:18.597Z,89.62
2018-02-04T20:22:46.945Z,89.58
2018-02-04T20:25:15.276Z,89.46
2018-02-04T20:27:43.622Z,89.24
2018-02-04T20:30:11.960Z,88.75
2018-02-04T20:32:51.913Z,88.48
2018-02-04T20:35:20.246Z,88.58
2018-02-04T20:37:48.622Z,88.56
2018-02-04T20:40:16.953Z,88.67
2018-02-04T20:42:45.305Z,88.42
2018-02-04T20:45:13.672Z,88.16
2018-02-04T20:47:42.047Z,88.33
2018-02-04T20:50:10.381Z,88.11
2018-02-04T20:52:38.733Z,88.75
2018-02-04T20:55:07.091Z,88.85
2018-02-04T20:57:35.592Z,89.18
2018-02-04T21:00:03.918Z,89.42
2018-02-04T21:02:32.270Z,89.67
2018-02-04T21:05:01.419Z,89.75
2018-02-04T21:07:29.769Z,89.65
2018-02-04T21:09:58.114Z,89.42
2018-02-04T21:12:26.470Z,89.51
2018-02-04T21:14:54.805Z,89.46
2018-02-04T21:17:23.157Z,89.34
2018-02-04T21:19:51.650Z,89.15
2018-02-04T21:22:20.045Z,88.84
2018-02-04T21:24:48.448Z,88.88
2018-02-04T21:27:17.039Z,88.63
2018-02-04T21:29:45.437Z,88.44
2018-02-04T21:32:13.925Z,88.65
2018-02-04T21:34:42.361Z,88.64
2018-02-04T21:37:10.730Z,88.51
2018-02-04T21:39:39.181Z,88.77
2018-02-04T21:42:07.506Z,88.68
2018-02-04T21:44:36.095Z,89.00
2018-02-04T21:47:04.486Z,89.36
2018-02-04T21:49:32.846Z,89.34
2018-02-04T21:52:01.176Z,89.65
2018-02-04T21:54:29.517Z,89.89
2018-02-04T21:56:57.850Z,89.94
2018-02-04T21:59:26.200Z,90.16
2018-02-04T22:01:54.537Z,90.21
2018-02-04T22:04:22.873Z,90.68
2018-02-04T22:06:51.201Z,91.26
2018-02-04T22:09:19.549Z,91.79
2018-02-04T22:11:47.882Z,92.16
2018-02-04T22:14:16.230Z,92.37
2018-02-04T22:16:44.565Z,92.51
2018-02-04T22:19:12.909Z,92.94
2018-02-04T22:21:41.236Z,93.08
2018-02-04T22:24:09.582Z,93.25
2018-02-04T22:26:37.901Z,93.06
2018-02-04T22:29:06.249Z,93.06
2018-02-04T22:31:34.573Z,93.10
2018-02-04T22:34:02.923Z,93.33
2018-02-04T22:36:31.249Z,93.65
2018-02-04T22:38:59.593Z,93.61
2018-02-04T22:41:27.917Z,93.46
2018-02-04T22:43:56.261Z,93.64
2018-02-04T22:46:24.584Z,93.85
2018-02-04T22:48:52.949Z,94.16
2018-02-04T22:51:21.258Z,94.19
2018-02-04T22:53:49.607Z,94.06
2018-02-04T22:56:17.929Z,94.16
2018-02-04T22:58:46.282Z,94.49
2018-02-04T23:01:14.601Z,94.59
2018-02-04T23:03:42.953Z,94.82
2018-02-04T23:06:11.281Z,94.90
2018-02-04T23:08:39.625Z,95.14
2018-02-04T23:11:07.951Z,95.56
2018-02-04T23:13:36.294Z,95.73
2018-02-04T23:16:04.620Z,95.75
2018-02-04T23:18:32.962Z,95.92
2018-02-04T23:21:01.286Z,96.25
2018-02-04T23:23:29.630Z,96.35
2018-02-04T23:25:57.953Z,96.21
2018-02-04T23:28:26.297Z,96.16
2018-02-04T23:30:54.626Z,96.15
2018-02-04T23:33:22.970Z,96.31
2018-02-04T23:35:51.298Z,96.23
2018-02-04T23:38:19.657Z,96.08
2018-02-04T23:40:47.982Z,96.09
2018-02-04T23:43:16.313Z,96.14
2018-02-04T23:45:44.663Z,96.14
2018-02-04T23:48:12.981Z,96.11
2018-02-04T23:50:41.337Z,96.08
2018-02-04T23:53:09.658Z,96.08
2018-02-04T23:55:38.001Z,96.03
2018-02-04T23:58:06.327Z,96.09
